createdAt,value
2023-02-11T00:00:58.834Z,20.63
2023-02-11T00:03:28.466Z,24.67
2023-02-11T00:06:09.241Z,31.02
2023-02-11T00:08:36.714Z,20.42
2023-02-11T00:11:04.124Z,24.70
2023-02-11T00:13:31.053Z,16.02
2023-02-11T00:15:58.452Z,14.65
2023-02-11T00:18:25.860Z,15.77
2023-02-11T00:20:53.021Z,12.60
2023-02-11T00:23:19.709Z,18.60
2023-02-11T00:25:46.429Z,19.67
2023-02-11T00:28:13.665Z,17.50
2023-02-11T00:30:41.267Z,17.33
2023-02-11T00:33:08.608Z,21.50
2023-02-11T00:35:38.675Z,16.17
2023-02-11T00:38:08.186Z,28.67
2023-02-11T00:40:34.907Z,13.65
2023-02-11T00:43:03.660Z,15.90
2023-02-11T00:45:31.742Z,21.33
2023-02-11T00:47:58.671Z,15.57
2023-02-11T00:50:30.202Z,16.73
2023-02-11T00:52:57.105Z,19.80
2023-02-11T00:55:23.846Z,16.02
2023-02-11T00:57:51.031Z,17.42
2023-02-11T01:00:18.232Z,13.15
2023-02-11T01:02:45.580Z,18.48
2023-02-11T01:05:12.724Z,15.93
2023-02-11T01:07:39.589Z,18.58
2023-02-11T01:10:06.623Z,17.15
2023-02-11T01:12:36.270Z,19.20
2023-02-11T01:15:05.129Z,15.48
2023-02-11T01:17:33.787Z,11.68
2023-02-11T01:20:07.115Z,17.38
2023-02-11T01:22:34.438Z,17.55
2023-02-11T01:25:01.775Z,17.67
2023-02-11T01:27:28.402Z,15.00
2023-02-11T01:29:57.120Z,16.98
2023-02-11T01:32:24.106Z,21.33
2023-02-11T01:34:51.080Z,17.73
2023-02-11T01:37:17.865Z,12.82
2023-02-11T01:39:44.717Z,15.60
2023-02-11T01:42:17.132Z,12.85
2023-02-11T01:44:44.109Z,22.13
2023-02-11T01:47:14.227Z,20.63
2023-02-11T01:49:46.352Z,12.40
2023-02-11T01:52:20.108Z,16.63
2023-02-11T01:55:11.201Z,19.10
2023-02-11T01:57:41.258Z,16.70
2023-02-11T02:00:08.547Z,17.23
2023-02-11T02:02:59.205Z,13.75
2023-02-11T02:05:52.948Z,17.42
2023-02-11T02:08:34.402Z,21.77
2023-02-11T02:11:02.981Z,13.88
2023-02-11T02:13:33.719Z,18.17
2023-02-11T02:16:02.238Z,15.57
2023-02-11T02:18:51.163Z,14.73
2023-02-11T02:21:37.086Z,16.40
2023-02-11T02:24:15.900Z,14.50
2023-02-11T02:27:19.936Z,18.50
2023-02-11T02:30:14.450Z,21.25
2023-02-11T02:33:20.535Z,12.65
2023-02-11T02:35:59.681Z,19.00
2023-02-11T02:38:39.212Z,19.75
2023-02-11T02:41:14.364Z,18.45
2023-02-11T02:43:45.204Z,20.50
2023-02-11T02:46:19.442Z,20.70
2023-02-11T02:48:47.408Z,23.50
2023-02-11T02:51:56.669Z,16.92
2023-02-11T02:54:54.374Z,22.13
2023-02-11T02:57:43.053Z,17.10
2023-02-11T03:00:14.838Z,17.92
2023-02-11T03:02:52.077Z,18.70
2023-02-11T03:05:30.248Z,24.38
2023-02-11T03:08:05.539Z,20.77
2023-02-11T03:10:38.154Z,19.83
2023-02-11T03:13:06.007Z,15.48
2023-02-11T03:15:41.310Z,20.40
2023-02-11T03:18:13.787Z,16.15
2023-02-11T03:20:44.527Z,18.08
2023-02-11T03:23:44.348Z,16.45
2023-02-11T03:26:33.675Z,18.98
2023-02-11T03:29:10.899Z,13.65
2023-02-11T03:31:56.824Z,22.55
2023-02-11T03:34:35.648Z,17.98
2023-02-11T03:37:18.037Z,18.63
2023-02-11T03:39:52.300Z,12.65
2023-02-11T03:42:19.821Z,18.05
2023-02-11T03:44:59.181Z,15.93
2023-02-11T03:47:29.016Z,18.40
2023-02-11T03:49:58.931Z,22.77
2023-02-11T03:52:27.964Z,17.02
2023-02-11T03:54:58.182Z,19.25
2023-02-11T03:57:25.022Z,17.58
2023-02-11T03:59:58.243Z,16.20
2023-02-11T04:02:29.445Z,17.65
2023-02-11T04:04:56.283Z,15.48
2023-02-11T04:07:24.458Z,16.27
2023-02-11T04:09:51.969Z,19.85
2023-02-11T04:12:18.772Z,18.30
2023-02-11T04:14:45.777Z,15.57
2023-02-11T04:17:13.626Z,17.90
2023-02-11T04:19:40.853Z,10.90
2023-02-11T04:22:09.135Z,18.27
2023-02-11T04:24:36.143Z,19.00
2023-02-11T04:27:02.892Z,12.82
2023-02-11T04:29:29.705Z,17.60
2023-02-11T04:31:56.837Z,17.15
2023-02-11T04:34:24.902Z,12.85
2023-02-11T04:36:51.587Z,18.33
2023-02-11T04:39:18.814Z,18.92
2023-02-11T04:41:45.516Z,21.67
2023-02-11T04:44:12.627Z,19.48
2023-02-11T04:46:39.316Z,15.40
2023-02-11T04:49:06.081Z,15.63
2023-02-11T04:51:33.030Z,15.57
2023-02-11T04:54:00.134Z,16.05
2023-02-11T04:56:26.963Z,21.63
2023-02-11T04:58:53.731Z,18.75
2023-02-11T05:01:20.934Z,20.98
2023-02-11T05:03:48.009Z,20.42
2023-02-11T05:06:14.771Z,19.33
2023-02-11T05:08:41.511Z,21.23
2023-02-11T05:11:14.605Z,19.35
2023-02-11T05:13:41.407Z,18.42
2023-02-11T05:16:08.630Z,22.80
2023-02-11T05:18:38.239Z,20.92
2023-02-11T05:21:11.951Z,17.15
2023-02-11T05:23:40.772Z,17.90
2023-02-11T05:26:08.661Z,14.00
2023-02-11T05:28:37.454Z,22.50
2023-02-11T05:31:04.509Z,17.25
2023-02-11T05:33:32.012Z,18.63
2023-02-11T05:36:04.873Z,17.08
2023-02-11T05:38:32.404Z,22.02
2023-02-11T05:40:59.046Z,18.95
2023-02-11T05:43:28.653Z,17.75
2023-02-11T05:45:55.922Z,21.92
2023-02-11T05:48:28.081Z,22.50
2023-02-11T05:50:56.214Z,24.45
2023-02-11T05:53:23.277Z,24.65
2023-02-11T05:55:50.291Z,23.45
2023-02-11T05:58:17.380Z,18.55
2023-02-11T06:00:44.201Z,20.38
2023-02-11T06:03:10.939Z,25.50
2023-02-11T06:05:38.075Z,21.58
2023-02-11T06:08:05.081Z,18.63
2023-02-11T06:10:31.760Z,24.35
2023-02-11T06:12:58.495Z,21.30
2023-02-11T06:15:25.673Z,20.88
2023-02-11T06:17:52.524Z,26.20
2023-02-11T06:20:19.525Z,25.63
2023-02-11T06:22:46.369Z,28.05
2023-02-11T06:25:13.537Z,30.83
2023-02-11T06:27:40.824Z,28.20
2023-02-11T06:30:09.989Z,26.27
2023-02-11T06:32:44.424Z,25.77
2023-02-11T06:35:12.789Z,23.75
2023-02-11T06:37:40.984Z,28.73
2023-02-11T06:40:08.616Z,23.45
2023-02-11T06:42:36.269Z,27.88
2023-02-11T06:45:06.178Z,25.45
2023-02-11T06:47:33.388Z,24.73
2023-02-11T06:50:00.195Z,39.58
2023-02-11T06:52:27.020Z,27.30
2023-02-11T06:54:53.743Z,28.40
2023-02-11T06:57:20.537Z,36.92
2023-02-11T06:59:48.289Z,33.63
2023-02-11T07:02:20.653Z,31.90
2023-02-11T07:04:47.872Z,33.78
2023-02-11T07:07:14.583Z,34.45
2023-02-11T07:09:41.585Z,34.47
2023-02-11T07:12:10.425Z,29.77
2023-02-11T07:14:38.051Z,37.40
2023-02-11T07:17:05.252Z,32.83
2023-02-11T07:19:32.155Z,34.85
2023-02-11T07:21:58.831Z,36.20
2023-02-11T07:24:28.675Z,36.53
2023-02-11T07:26:58.156Z,38.53
2023-02-11T07:29:24.787Z,36.35
2023-02-11T07:31:51.546Z,36.40
2023-02-11T07:34:21.352Z,37.65
2023-02-11T07:36:49.019Z,38.28
2023-02-11T07:39:16.836Z,33.75
2023-02-11T07:41:46.806Z,32.72
2023-02-11T07:44:14.195Z,38.38
2023-02-11T07:46:44.559Z,39.15
2023-02-11T07:49:12.596Z,34.90
2023-02-11T07:51:39.292Z,32.85
2023-02-11T07:54:06.308Z,36.08
2023-02-11T07:56:34.564Z,38.67
2023-02-11T07:59:03.537Z,37.22
2023-02-11T08:01:30.729Z,37.15
2023-02-11T08:03:59.168Z,39.72
2023-02-11T08:06:28.903Z,37.67
2023-02-11T08:08:56.219Z,42.08
2023-02-11T08:11:30.295Z,41.20
2023-02-11T08:13:57.353Z,42.35
2023-02-11T08:16:34.471Z,43.67
2023-02-11T08:19:05.202Z,40.45
2023-02-11T08:21:32.413Z,43.63
2023-02-11T08:23:59.176Z,39.03
2023-02-11T08:26:29.551Z,39.40
2023-02-11T08:28:57.826Z,41.17
2023-02-11T08:31:33.002Z,38.80
2023-02-11T08:34:02.365Z,45.13
2023-02-11T08:36:33.205Z,39.25
2023-02-11T08:39:18.003Z,39.92
2023-02-11T08:41:48.889Z,40.17
2023-02-11T08:44:17.150Z,48.22
2023-02-11T08:46:44.211Z,42.53
2023-02-11T08:49:11.201Z,46.22
2023-02-11T08:51:41.391Z,41.85
2023-02-11T08:54:09.936Z,44.72
2023-02-11T08:56:38.218Z,44.25
2023-02-11T08:59:05.549Z,45.25
2023-02-11T09:01:33.543Z,39.15
2023-02-11T09:04:01.251Z,42.00
2023-02-11T09:06:29.084Z,42.47
2023-02-11T09:08:58.036Z,41.25
2023-02-11T09:11:30.997Z,42.85
2023-02-11T09:13:58.237Z,42.17
2023-02-11T09:16:30.555Z,42.63
2023-02-11T09:18:58.887Z,42.15
2023-02-11T09:21:25.922Z,38.28
2023-02-11T09:23:53.129Z,34.28
2023-02-11T09:26:24.019Z,41.13
2023-02-11T09:28:51.489Z,45.13
2023-02-11T09:31:21.706Z,40.90
2023-02-11T09:33:51.179Z,44.20
2023-02-11T09:36:25.012Z,40.60
2023-02-11T09:38:52.554Z,44.65
2023-02-11T09:41:24.837Z,39.90
2023-02-11T09:44:02.942Z,44.17
2023-02-11T09:46:42.684Z,41.03
2023-02-11T09:49:20.080Z,41.92
2023-02-11T09:51:55.393Z,37.95
2023-02-11T09:54:44.988Z,41.15
2023-02-11T09:57:27.857Z,38.85
2023-02-11T09:59:57.769Z,43.38
2023-02-11T10:02:45.163Z,39.90
2023-02-11T10:05:36.562Z,40.80
2023-02-11T10:08:14.628Z,35.03
2023-02-11T10:10:43.082Z,39.72
2023-02-11T10:13:40.823Z,42.38
2023-02-11T10:16:33.587Z,43.80
2023-02-11T10:19:44.053Z,38.97
2023-02-11T10:22:15.057Z,37.67
2023-02-11T10:24:51.124Z,42.03
2023-02-11T10:27:21.206Z,33.35
2023-02-11T10:30:05.295Z,34.17
2023-02-11T10:32:49.069Z,34.83
2023-02-11T10:35:19.686Z,38.40
2023-02-11T10:37:47.516Z,35.35
2023-02-11T10:40:20.304Z,34.85
2023-02-11T10:42:53.624Z,37.07
2023-02-11T10:45:28.516Z,34.38
2023-02-11T10:47:55.527Z,40.38
2023-02-11T10:50:31.130Z,33.13
2023-02-11T10:53:22.445Z,36.35
2023-02-11T10:55:56.067Z,32.33
2023-02-11T10:58:45.440Z,36.25
2023-02-11T11:01:23.902Z,47.33
2023-02-11T11:03:53.034Z,39.20
2023-02-11T11:06:33.815Z,40.25
2023-02-11T11:09:01.228Z,38.83
2023-02-11T11:11:28.071Z,40.33
2023-02-11T11:14:19.449Z,37.30
2023-02-11T11:16:54.998Z,32.35
2023-02-11T11:19:26.008Z,34.58
2023-02-11T11:21:55.349Z,33.42
2023-02-11T11:24:26.971Z,36.40
2023-02-11T11:27:01.080Z,37.90
2023-02-11T11:29:39.037Z,37.80
2023-02-11T11:32:14.503Z,36.50
2023-02-11T11:34:49.053Z,31.25
2023-02-11T11:38:02.326Z,39.75
2023-02-11T11:40:32.002Z,33.55
2023-02-11T11:43:17.355Z,34.85
2023-02-11T11:45:57.172Z,34.60
2023-02-11T11:48:38.309Z,34.10
2023-02-11T11:51:10.848Z,36.65
2023-02-11T11:53:57.348Z,36.38
2023-02-11T11:56:31.897Z,43.90
2023-02-11T12:01:50.815Z,38.03
2023-02-11T12:04:56.100Z,43.03
2023-02-11T12:07:38.997Z,33.95
2023-02-11T12:10:15.099Z,38.55
2023-02-11T12:13:22.762Z,39.70
2023-02-11T12:16:01.288Z,31.35
2023-02-11T12:18:37.989Z,33.00
2023-02-11T12:21:23.107Z,34.40
2023-02-11T12:24:10.685Z,35.83
2023-02-11T12:26:55.680Z,36.80
2023-02-11T12:29:58.271Z,40.58
2023-02-11T12:32:39.277Z,31.42
2023-02-11T12:35:32.683Z,36.15
2023-02-11T12:38:18.935Z,37.13
2023-02-11T12:40:48.902Z,32.75
2023-02-11T12:43:18.702Z,35.80
2023-02-11T12:46:27.634Z,32.55
2023-02-11T12:49:22.591Z,36.72
2023-02-11T12:51:57.835Z,30.15
2023-02-11T12:54:31.563Z,34.40
2023-02-11T12:57:17.239Z,29.55
2023-02-11T13:00:08.882Z,31.80
2023-02-11T13:03:06.123Z,32.10
2023-02-11T13:05:52.014Z,29.80
2023-02-11T13:08:43.313Z,33.65
2023-02-11T13:11:24.557Z,33.78
2023-02-11T13:13:55.502Z,32.80
2023-02-11T13:16:45.676Z,33.08
2023-02-11T13:19:18.550Z,33.25
2023-02-11T13:22:11.013Z,33.53
2023-02-11T13:24:49.715Z,31.75
2023-02-11T13:27:44.571Z,28.00
2023-02-11T13:30:33.735Z,32.58
2023-02-11T13:33:08.906Z,32.05
2023-02-11T13:35:46.417Z,33.92
2023-02-11T13:38:22.264Z,32.05
2023-02-11T13:41:01.090Z,40.03
2023-02-11T13:43:31.630Z,29.23
2023-02-11T13:46:07.571Z,27.92
2023-02-11T13:48:48.036Z,33.38
2023-02-11T13:51:18.377Z,29.20
2023-02-11T13:53:55.776Z,31.42
2023-02-11T13:56:33.857Z,29.98
2023-02-11T13:59:27.535Z,31.42
2023-02-11T14:02:14.283Z,31.70
2023-02-11T14:05:24.934Z,33.70
2023-02-11T14:08:28.845Z,30.33
2023-02-11T14:10:55.564Z,33.72
2023-02-11T14:13:36.112Z,27.02
2023-02-11T14:16:17.069Z,33.67
2023-02-11T14:18:59.753Z,36.75
2023-02-11T14:21:27.400Z,25.63
2023-02-11T14:24:14.550Z,27.55
2023-02-11T14:26:53.040Z,31.25
2023-02-11T14:29:59.278Z,28.95
2023-02-11T14:32:45.750Z,28.98
2023-02-11T14:35:20.626Z,24.98
2023-02-11T14:38:18.687Z,32.40
2023-02-11T14:41:06.706Z,38.85
2023-02-11T14:43:39.917Z,37.45
2023-02-11T14:46:07.770Z,27.73
2023-02-11T14:48:38.093Z,28.92
2023-02-11T14:51:13.990Z,27.70
2023-02-11T14:53:47.867Z,32.08
2023-02-11T14:56:31.815Z,30.38
2023-02-11T15:01:35.127Z,28.60
2023-02-11T15:04:04.437Z,31.48
2023-02-11T15:06:41.084Z,30.88
2023-02-11T15:09:18.720Z,31.20
2023-02-11T15:11:49.375Z,32.65
2023-02-11T15:14:29.808Z,24.95
2023-02-11T15:16:59.402Z,25.42
2023-02-11T15:19:34.212Z,27.65
2023-02-11T15:22:26.605Z,24.27
2023-02-11T15:25:17.816Z,24.90
2023-02-11T15:27:48.384Z,23.30
2023-02-11T15:30:29.049Z,27.10
2023-02-11T15:33:05.963Z,22.33
2023-02-11T15:35:38.365Z,20.77
2023-02-11T15:38:05.756Z,22.08
2023-02-11T15:40:35.302Z,25.55
2023-02-11T15:43:07.185Z,28.98
2023-02-11T15:45:44.217Z,23.63
2023-02-11T15:48:39.425Z,24.30
2023-02-11T15:51:41.937Z,26.15
2023-02-11T15:54:26.815Z,23.33
2023-02-11T15:57:01.769Z,23.35
2023-02-11T15:59:33.252Z,24.75
2023-02-11T16:02:29.170Z,20.75
2023-02-11T16:05:01.931Z,26.85
2023-02-11T16:07:55.872Z,26.13
2023-02-11T16:10:35.390Z,25.60
2023-02-11T16:13:09.779Z,28.35
2023-02-11T16:15:43.185Z,29.05
2023-02-11T16:18:36.811Z,29.10
2023-02-11T16:21:16.724Z,21.98
2023-02-11T16:23:50.960Z,26.55
2023-02-11T16:26:36.260Z,23.00
2023-02-11T16:29:09.829Z,24.20
2023-02-11T16:31:44.602Z,23.25
2023-02-11T16:34:20.278Z,31.92
2023-02-11T16:36:48.884Z,23.42
2023-02-11T16:39:17.546Z,21.83
2023-02-11T16:41:47.720Z,26.63
2023-02-11T16:44:14.595Z,27.70
2023-02-11T16:46:50.822Z,20.98
2023-02-11T16:49:32.057Z,30.08
2023-02-11T16:52:11.287Z,22.90
2023-02-11T16:54:56.062Z,21.13
2023-02-11T16:57:24.731Z,20.77
2023-02-11T17:00:00.027Z,21.65
2023-02-11T17:02:34.570Z,25.35
2023-02-11T17:05:08.892Z,25.50
2023-02-11T17:07:36.272Z,26.52
2023-02-11T17:10:21.135Z,23.58
2023-02-11T17:12:54.141Z,23.13
2023-02-11T17:15:35.720Z,22.92
2023-02-11T17:18:03.829Z,20.33
2023-02-11T17:20:40.038Z,29.50
2023-02-11T17:23:07.961Z,24.60
2023-02-11T17:25:39.482Z,22.52
2023-02-11T17:28:09.825Z,28.42
2023-02-11T17:34:17.319Z,33.28
2023-02-11T17:36:45.015Z,27.77
2023-02-11T17:39:12.510Z,28.30
2023-02-11T17:41:45.402Z,25.10
2023-02-11T17:44:22.469Z,20.37
2023-02-11T17:46:56.138Z,21.20
2023-02-11T17:49:30.341Z,22.77
2023-02-11T17:52:10.191Z,23.48
2023-02-11T17:54:38.963Z,24.65
2023-02-11T17:57:06.383Z,22.60
2023-02-11T17:59:41.266Z,32.08
2023-02-11T18:02:15.515Z,25.08
2023-02-11T18:05:22.576Z,27.98
2023-02-11T18:07:49.876Z,24.10
2023-02-11T18:10:17.193Z,27.00
2023-02-11T18:12:57.142Z,18.23
2023-02-11T18:15:36.633Z,27.92
2023-02-11T18:18:07.562Z,25.90
2023-02-11T18:20:35.023Z,41.08
2023-02-11T18:23:04.341Z,23.73
2023-02-11T18:29:43.926Z,20.17
2023-02-11T18:32:11.504Z,16.77
2023-02-11T18:34:48.649Z,19.60
2023-02-11T18:37:16.594Z,21.20
2023-02-11T18:39:45.978Z,23.27
2023-02-11T18:42:13.063Z,25.55
2023-02-11T18:44:42.425Z,36.72
2023-02-11T18:47:16.127Z,29.52
2023-02-11T18:49:50.035Z,28.10
2023-02-11T18:52:20.423Z,23.95
2023-02-11T18:54:52.288Z,27.35
2023-02-11T18:57:22.383Z,32.10
2023-02-11T18:59:51.950Z,26.75
2023-02-11T19:02:25.041Z,23.83
2023-02-11T19:04:54.229Z,19.55
2023-02-11T19:07:27.086Z,20.45
2023-02-11T19:09:54.467Z,14.25
2023-02-11T19:12:27.691Z,19.33
2023-02-11T19:14:56.915Z,19.95
2023-02-11T19:17:25.858Z,24.67
2023-02-11T19:19:53.289Z,23.52
2023-02-11T19:22:27.263Z,20.75
2023-02-11T19:25:07.893Z,22.80
2023-02-11T19:27:46.304Z,18.50
2023-02-11T19:30:17.684Z,27.05
2023-02-11T19:32:44.916Z,24.83
2023-02-11T19:35:11.658Z,23.15
2023-02-11T19:37:38.847Z,20.75
2023-02-11T19:40:06.517Z,20.85
2023-02-11T19:42:40.166Z,21.15
2023-02-11T19:45:10.334Z,19.27
2023-02-11T19:47:40.135Z,23.45
2023-02-11T19:50:21.052Z,22.67
2023-02-11T19:52:59.820Z,17.33
2023-02-11T19:55:34.223Z,20.73
2023-02-11T19:58:01.354Z,21.83
2023-02-11T20:00:28.451Z,18.30
2023-02-11T20:02:57.040Z,22.05
2023-02-11T20:05:33.747Z,18.17
2023-02-11T20:08:17.262Z,17.73
2023-02-11T20:10:46.755Z,17.77
2023-02-11T20:13:14.185Z,17.13
2023-02-11T20:15:41.260Z,17.67
2023-02-11T20:18:09.023Z,15.48
2023-02-11T20:20:40.422Z,21.08
2023-02-11T20:23:07.773Z,18.20
2023-02-11T20:25:40.818Z,16.55
2023-02-11T20:28:43.095Z,17.65
2023-02-11T20:31:30.970Z,18.38
2023-02-11T20:34:13.518Z,18.73
2023-02-11T20:36:52.371Z,17.08
2023-02-11T20:39:28.970Z,18.52
2023-02-11T20:42:00.496Z,17.63
2023-02-11T20:44:30.291Z,18.48
2023-02-11T20:46:57.151Z,16.52
2023-02-11T20:49:24.657Z,20.92
2023-02-11T20:51:57.970Z,18.88
2023-02-11T20:54:25.843Z,18.40
2023-02-11T20:56:54.237Z,20.77
2023-02-11T20:59:28.714Z,31.85
2023-02-11T21:02:01.833Z,19.63
2023-02-11T21:04:39.402Z,23.85
2023-02-11T21:07:09.555Z,17.88
2023-02-11T21:09:36.295Z,18.00
2023-02-11T21:12:03.870Z,23.08
2023-02-11T21:14:31.025Z,20.65
2023-02-11T21:16:58.196Z,27.90
2023-02-11T21:19:26.902Z,20.05
2023-02-11T21:21:55.695Z,19.00
2023-02-11T21:24:23.775Z,23.45
2023-02-11T21:26:51.048Z,15.75
2023-02-11T21:29:18.211Z,20.83
2023-02-11T21:31:47.696Z,15.02
2023-02-11T21:34:16.341Z,17.20
2023-02-11T21:36:44.831Z,22.13
2023-02-11T21:39:15.771Z,15.48
2023-02-11T21:41:42.704Z,13.27
2023-02-11T21:44:09.766Z,12.30
2023-02-11T21:46:38.331Z,9.98
2023-02-11T21:49:08.141Z,8.90
2023-02-11T21:51:35.200Z,10.25
2023-02-11T21:54:04.654Z,13.80
2023-02-11T21:56:33.938Z,15.90
2023-02-11T21:59:01.615Z,14.05
2023-02-11T22:01:31.710Z,13.15
2023-02-11T22:03:59.603Z,12.63
2023-02-11T22:06:31.034Z,11.07
2023-02-11T22:08:58.789Z,12.45
2023-02-11T22:11:26.084Z,11.50
2023-02-11T22:13:56.340Z,13.10
2023-02-11T22:16:24.136Z,12.90
2023-02-11T22:18:51.663Z,14.02
2023-02-11T22:21:21.671Z,10.95
2023-02-11T22:23:48.897Z,19.60
2023-02-11T22:26:18.394Z,14.20
2023-02-11T22:28:46.370Z,12.57
2023-02-11T22:31:16.122Z,10.82
2023-02-11T22:33:43.525Z,10.52
2023-02-11T22:36:19.057Z,17.63
2023-02-11T22:38:46.104Z,12.95
2023-02-11T22:41:13.747Z,10.82
2023-02-11T22:43:42.242Z,15.00
2023-02-11T22:46:10.935Z,11.15
2023-02-11T22:48:38.158Z,12.07
2023-02-11T22:51:26.328Z,14.95
2023-02-11T22:53:58.937Z,12.85
2023-02-11T22:56:27.752Z,12.03
2023-02-11T22:58:57.610Z,12.52
2023-02-11T23:01:25.083Z,13.38
2023-02-11T23:03:51.911Z,13.65
2023-02-11T23:06:19.034Z,16.75
2023-02-11T23:08:46.670Z,12.90
2023-02-11T23:11:22.748Z,14.02
2023-02-11T23:13:52.328Z,11.23
2023-02-11T23:16:22.049Z,11.25
2023-02-11T23:18:50.730Z,12.48
2023-02-11T23:21:26.742Z,14.90
2023-02-11T23:24:03.385Z,16.02
2023-02-11T23:26:30.750Z,13.10
2023-02-11T23:28:58.650Z,12.38
2023-02-11T23:31:30.934Z,10.70
2023-02-11T23:33:58.074Z,15.23
2023-02-11T23:36:25.739Z,11.05
2023-02-11T23:38:52.866Z,9.63
2023-02-11T23:41:20.025Z,13.88
2023-02-11T23:43:51.642Z,13.50
2023-02-11T23:46:21.816Z,12.98
2023-02-11T23:48:50.038Z,11.07
2023-02-11T23:51:18.246Z,12.07
2023-02-11T23:53:49.380Z,13.73
2023-02-11T23:56:22.401Z,12.32
2023-02-11T23:58:50.660Z,11.83
